PWSweather.com
Personal Weather Stations
Station Observations

DeskleSI

Lat: 46.0525, Lon: 13.6103

Elevation: 300

Station Type: Oregon Scientific WMR200

http://vreme-deskle.slohosting.com/

Latest ConditionsUpdated 10:20:04 AM GMT+01:01 Thursday, Dec 12, 2019
Currently Today's Max Today's Min Today's Average
Temperature 39.9°F4.4°C 40.3°F4.6°C 33.4°F0.8°C 37.1°F2.8°C
Dew Point 17.5°F-8.1°C 17.9°F-7.8°C 8.9°F-12.8°C 14.5°F-9.7°C
Winds 8.7 mph N14.0 kmh N 9.8 mph -15.8 kmh - - 4.8 mph 7.7 kmh
Wind Gusts 12.3 mph19.8 kmh 15.2 mph24.5 kmh - -
Humidity 40% 46% 28% 39%
Pressure 29.71 in1006.1 mb 29.77 in1008.1 mb 29.68 in1005.1 mb -
Hour Temp Dew Point Humidity Winds Wind Gusts Pressure Precip Precip Rate Daily Precip Total
10:20 AM 39.9°F4.4°C 17.5°F-8.1°C 40% 8.7 mph N14.0 kmh N 12.3 mph19.8 kmh 29.71 in1006.1 mb 0.00 in0.0 mm 0.00 in0.0 mm 0.00 in0.0 mm
10:15 AM 39.9°F4.4°C 17.5°F-8.1°C 40% 3.1 mph NE5.0 kmh NE 12.3 mph19.8 kmh 29.74 in1007.1 mb 0.00 in0.0 mm 0.00 in0.0 mm 0.00 in0.0 mm
10:10 AM 39.9°F4.4°C 17.5°F-8.1°C 40% 3.4 mph NE5.5 kmh NE 15.2 mph24.5 kmh 29.74 in1007.1 mb 0.00 in0.0 mm 0.00 in0.0 mm 0.00 in0.0 mm
10:05 AM 39.9°F4.4°C 17.5°F-8.1°C 40% 7.2 mph NE11.6 kmh NE 15.2 mph24.5 kmh 29.74 in1007.1 mb 0.00 in0.0 mm 0.00 in0.0 mm 0.00 in0.0 mm
10:00 AM 39.9°F4.4°C 17.5°F-8.1°C 40% 4.3 mph NE6.9 kmh NE 11.9 mph19.2 kmh 29.71 in1006.1 mb 0.00 in0.0 mm 0.00 in0.0 mm 0.00 in0.0 mm
09:55 AM 39.9°F4.4°C 17.5°F-8.1°C 40% 6.3 mph NE10.1 kmh NE 10.5 mph16.9 kmh 29.71 in1006.1 mb 0.00 in0.0 mm 0.00 in0.0 mm 0.00 in0.0 mm
09:50 AM 39.9°F4.4°C 17.5°F-8.1°C 40% 6.7 mph NE10.8 kmh NE 11.0 mph17.7 kmh 29.71 in1006.1 mb 0.00 in0.0 mm 0.00 in0.0 mm 0.00 in0.0 mm
09:45 AM 39.9°F4.4°C 17.5°F-8.1°C 40% 5.6 mph N9.0 kmh N 11.0 mph17.7 kmh 29.71 in1006.1 mb 0.00 in0.0 mm 0.00 in0.0 mm 0.00 in0.0 mm
09:40 AM 39.7°F4.3°C 17.9°F-7.8°C 41% 5.6 mph N9.0 kmh N 10.3 mph16.6 kmh 29.71 in1006.1 mb 0.00 in0.0 mm 0.00 in0.0 mm 0.00 in0.0 mm
09:35 AM 39.7°F4.3°C 17.9°F-7.8°C 41% 6.9 mph NNW11.1 kmh NNW 8.9 mph14.3 kmh 29.71 in1006.1 mb 0.00 in0.0 mm 0.00 in0.0 mm 0.00 in0.0 mm
09:30 AM 39.6°F4.2°C 17.8°F-7.9°C 41% 4.7 mph NW7.6 kmh NW 8.1 mph13.0 kmh 29.71 in1006.1 mb 0.00 in0.0 mm 0.00 in0.0 mm 0.00 in0.0 mm
09:25 AM 39.4°F4.1°C 17.6°F-8.0°C 41% 2.0 mph NNE3.2 kmh NNE 8.1 mph13.0 kmh 29.71 in1006.1 mb 0.00 in0.0 mm 0.00 in0.0 mm 0.00 in0.0 mm
09:20 AM 39.4°F4.1°C 17.6°F-8.0°C 41% 2.2 mph N3.5 kmh N 8.1 mph13.0 kmh 29.71 in1006.1 mb 0.00 in0.0 mm 0.00 in0.0 mm 0.00 in0.0 mm
09:15 AM 39.4°F4.1°C 17.6°F-8.0°C 41% 2.7 mph NW4.3 kmh NW 7.8 mph12.6 kmh 29.71 in1006.1 mb 0.00 in0.0 mm 0.00 in0.0 mm 0.00 in0.0 mm
09:10 AM 39.2°F4.0°C 17.4°F-8.1°C 41% 3.4 mph NNW5.5 kmh NNW 8.1 mph13.0 kmh 29.71 in1006.1 mb 0.00 in0.0 mm 0.00 in0.0 mm 0.00 in0.0 mm
09:05 AM 39.0°F3.9°C 17.8°F-7.9°C 42% 5.4 mph NNW8.7 kmh NNW 8.1 mph13.0 kmh 29.71 in1006.1 mb 0.00 in0.0 mm 0.00 in0.0 mm 0.00 in0.0 mm
09:00 AM 39.0°F3.9°C 17.3°F-8.2°C 41% 2.9 mph NNW4.7 kmh NNW 10.5 mph16.9 kmh 29.68 in1005.1 mb 0.00 in0.0 mm 0.00 in0.0 mm 0.00 in0.0 mm
08:55 AM 39.0°F3.9°C 17.8°F-7.9°C 42% 4.3 mph N6.9 kmh N 10.5 mph16.9 kmh 29.68 in1005.1 mb 0.00 in0.0 mm 0.00 in0.0 mm 0.00 in0.0 mm
08:50 AM 38.8°F3.8°C 17.7°F-7.9°C 42% 2.5 mph NE4.0 kmh NE 7.8 mph12.6 kmh 29.68 in1005.1 mb 0.00 in0.0 mm 0.00 in0.0 mm 0.00 in0.0 mm
08:45 AM 38.8°F3.8°C 17.1°F-8.3°C 41% 4.9 mph NW7.9 kmh NW 7.8 mph12.6 kmh 29.71 in1006.1 mb 0.00 in0.0 mm 0.00 in0.0 mm 0.00 in0.0 mm
08:40 AM 38.7°F3.7°C 17.5°F-8.1°C 42% 6.9 mph NW11.1 kmh NW 7.8 mph12.6 kmh 29.71 in1006.1 mb 0.00 in0.0 mm 0.00 in0.0 mm 0.00 in0.0 mm
08:35 AM 38.7°F3.7°C 17.0°F-8.3°C 41% 3.8 mph N6.1 kmh N 9.6 mph15.4 kmh 29.71 in1006.1 mb 0.00 in0.0 mm 0.00 in0.0 mm 0.00 in0.0 mm
08:30 AM 38.7°F3.7°C 17.0°F-8.3°C 41% 3.6 mph N5.8 kmh N 10.1 mph16.3 kmh 29.71 in1006.1 mb 0.00 in0.0 mm 0.00 in0.0 mm 0.00 in0.0 mm
08:25 AM 38.7°F3.7°C 17.0°F-8.3°C 41% 4.3 mph N6.9 kmh N 10.1 mph16.3 kmh 29.71 in1006.1 mb 0.00 in0.0 mm 0.00 in0.0 mm 0.00 in0.0 mm
08:20 AM 38.5°F3.6°C 16.8°F-8.4°C 41% 2.5 mph NNW4.0 kmh NNW 7.6 mph12.2 kmh 29.71 in1006.1 mb 0.00 in0.0 mm 0.00 in0.0 mm 0.00 in0.0 mm
08:15 AM 38.5°F3.6°C 16.8°F-8.4°C 41% 4.5 mph N7.2 kmh N 10.5 mph16.9 kmh 29.71 in1006.1 mb 0.00 in0.0 mm 0.00 in0.0 mm 0.00 in0.0 mm
08:10 AM 38.1°F3.4°C 16.5°F-8.6°C 41% 6.7 mph NNE10.8 kmh NNE 10.5 mph16.9 kmh 29.71 in1006.1 mb 0.00 in0.0 mm 0.00 in0.0 mm 0.00 in0.0 mm
08:05 AM 38.1°F3.4°C 17.0°F-8.3°C 42% 3.1 mph NNE5.0 kmh NNE 10.1 mph16.3 kmh 29.71 in1006.1 mb 0.00 in0.0 mm 0.00 in0.0 mm 0.00 in0.0 mm
08:00 AM 37.9°F3.3°C 17.4°F-8.1°C 43% 4.9 mph N7.9 kmh N 10.1 mph16.3 kmh 29.71 in1006.1 mb 0.00 in0.0 mm 0.00 in0.0 mm 0.00 in0.0 mm
07:55 AM 37.6°F3.1°C 17.1°F-8.3°C 43% 3.8 mph N6.1 kmh N 8.5 mph13.7 kmh 29.71 in1006.1 mb 0.00 in0.0 mm 0.00 in0.0 mm 0.00 in0.0 mm
07:50 AM 37.0°F2.8°C 17.1°F-8.3°C 44% 4.3 mph NNE6.9 kmh NNE 8.5 mph13.7 kmh 29.71 in1006.1 mb 0.00 in0.0 mm 0.00 in0.0 mm 0.00 in0.0 mm
07:45 AM 37.0°F2.8°C 17.1°F-8.3°C 44% 5.4 mph NNE8.7 kmh NNE 7.8 mph12.6 kmh 29.71 in1006.1 mb 0.00 in0.0 mm 0.00 in0.0 mm 0.00 in0.0 mm
07:40 AM 36.1°F2.3°C 16.8°F-8.4°C 45% 5.4 mph ENE8.7 kmh ENE 7.8 mph12.6 kmh 29.71 in1006.1 mb 0.00 in0.0 mm 0.00 in0.0 mm 0.00 in0.0 mm
07:35 AM 35.4°F1.9°C 16.2°F-8.8°C 45% 2.7 mph E4.3 kmh E 10.3 mph16.6 kmh 29.71 in1006.1 mb 0.00 in0.0 mm 0.00 in0.0 mm 0.00 in0.0 mm
07:30 AM 36.0°F2.2°C 16.7°F-8.5°C 45% 3.4 mph E5.5 kmh E 10.3 mph16.6 kmh 29.71 in1006.1 mb 0.00 in0.0 mm 0.00 in0.0 mm 0.00 in0.0 mm
07:25 AM 35.6°F2.0°C 16.3°F-8.7°C 45% 3.8 mph E6.1 kmh E 10.3 mph16.6 kmh 29.71 in1006.1 mb 0.00 in0.0 mm 0.00 in0.0 mm 0.00 in0.0 mm
07:20 AM 35.8°F2.1°C 16.5°F-8.6°C 45% 3.6 mph E5.8 kmh E 8.1 mph13.0 kmh 29.71 in1006.1 mb 0.00 in0.0 mm 0.00 in0.0 mm 0.00 in0.0 mm
07:15 AM 36.0°F2.2°C 16.1°F-8.8°C 44% 4.0 mph E6.4 kmh E 8.1 mph13.0 kmh 29.68 in1005.1 mb 0.00 in0.0 mm 0.00 in0.0 mm 0.00 in0.0 mm
07:10 AM 36.7°F2.6°C 16.8°F-8.4°C 44% 4.3 mph E6.9 kmh E 10.5 mph16.9 kmh 29.68 in1005.1 mb 0.00 in0.0 mm 0.00 in0.0 mm 0.00 in0.0 mm
07:00 AM 36.1°F2.3°C 16.8°F-8.4°C 45% 6.7 mph E10.8 kmh E 10.7 mph17.2 kmh 29.71 in1006.1 mb 0.00 in0.0 mm 0.00 in0.0 mm 0.00 in0.0 mm
06:55 AM 35.6°F2.0°C 16.3°F-8.7°C 45% 2.5 mph E4.0 kmh E 10.7 mph17.2 kmh 29.71 in1006.1 mb 0.00 in0.0 mm 0.00 in0.0 mm 0.00 in0.0 mm
06:50 AM 35.2°F1.8°C 16.5°F-8.6°C 46% 4.3 mph SE6.9 kmh SE 10.7 mph17.2 kmh 29.71 in1006.1 mb 0.00 in0.0 mm 0.00 in0.0 mm 0.00 in0.0 mm
06:45 AM 34.3°F1.3°C 15.2°F-9.3°C 45% 4.0 mph SE6.4 kmh SE 6.5 mph10.5 kmh 29.71 in1006.1 mb 0.00 in0.0 mm 0.00 in0.0 mm 0.00 in0.0 mm
06:40 AM 34.0°F1.1°C 14.8°F-9.6°C 45% 4.3 mph SE6.9 kmh SE 8.9 mph14.3 kmh 29.71 in1006.1 mb 0.00 in0.0 mm 0.00 in0.0 mm 0.00 in0.0 mm
06:35 AM 34.2°F1.2°C 15.5°F-9.2°C 46% 7.2 mph SE11.6 kmh SE 8.9 mph14.3 kmh 29.71 in1006.1 mb 0.00 in0.0 mm 0.00 in0.0 mm 0.00 in0.0 mm
06:30 AM 34.5°F1.4°C 15.3°F-9.3°C 45% 4.3 mph ESE6.9 kmh ESE 5.8 mph9.3 kmh 29.71 in1006.1 mb 0.00 in0.0 mm 0.00 in0.0 mm 0.00 in0.0 mm
06:25 AM 34.3°F1.3°C 15.2°F-9.3°C 45% 3.8 mph ESE6.1 kmh ESE 5.4 mph8.7 kmh 29.71 in1006.1 mb 0.00 in0.0 mm 0.00 in0.0 mm 0.00 in0.0 mm
06:20 AM 34.2°F1.2°C 15.0°F-9.4°C 45% 3.1 mph ESE5.0 kmh ESE 5.4 mph8.7 kmh 29.71 in1006.1 mb 0.00 in0.0 mm 0.00 in0.0 mm 0.00 in0.0 mm
06:15 AM 34.2°F1.2°C 15.0°F-9.4°C 45% 2.0 mph ESE3.2 kmh ESE 6.0 mph9.7 kmh 29.68 in1005.1 mb 0.00 in0.0 mm 0.00 in0.0 mm 0.00 in0.0 mm
06:10 AM 34.3°F1.3°C 15.2°F-9.3°C 45% 3.1 mph ESE5.0 kmh ESE 6.0 mph9.7 kmh 29.68 in1005.1 mb 0.00 in0.0 mm 0.00 in0.0 mm 0.00 in0.0 mm
06:05 AM 34.5°F1.4°C 15.3°F-9.3°C 45% 3.6 mph ESE5.8 kmh ESE 5.4 mph8.7 kmh 29.68 in1005.1 mb 0.00 in0.0 mm 0.00 in0.0 mm 0.00 in0.0 mm
06:00 AM 34.9°F1.6°C 14.6°F-9.7°C 43% 2.9 mph ESE4.7 kmh ESE 5.4 mph8.7 kmh 29.71 in1006.1 mb 0.00 in0.0 mm 0.00 in0.0 mm 0.00 in0.0 mm
05:55 AM 35.1°F1.7°C 14.8°F-9.6°C 43% 2.2 mph ESE3.5 kmh ESE 6.5 mph10.5 kmh 29.71 in1006.1 mb 0.00 in0.0 mm 0.00 in0.0 mm 0.00 in0.0 mm
05:50 AM 35.2°F1.8°C 14.9°F-9.5°C 43% 4.5 mph ESE7.2 kmh ESE 6.5 mph10.5 kmh 29.71 in1006.1 mb 0.00 in0.0 mm 0.00 in0.0 mm 0.00 in0.0 mm
05:45 AM 35.4°F1.9°C 14.6°F-9.7°C 42% 3.1 mph ESE5.0 kmh ESE 6.0 mph9.7 kmh 29.71 in1006.1 mb 0.00 in0.0 mm 0.00 in0.0 mm 0.00 in0.0 mm
05:40 AM 35.6°F2.0°C 14.7°F-9.6°C 42% 4.5 mph ESE7.2 kmh ESE 6.0 mph9.7 kmh 29.71 in1006.1 mb 0.00 in0.0 mm 0.00 in0.0 mm 0.00 in0.0 mm
05:35 AM 36.1°F2.3°C 15.2°F-9.3°C 42% 4.3 mph E6.9 kmh E 8.5 mph13.7 kmh 29.71 in1006.1 mb 0.00 in0.0 mm 0.00 in0.0 mm 0.00 in0.0 mm
05:30 AM 36.0°F2.2°C 15.1°F-9.4°C 42% 4.0 mph E6.4 kmh E 8.5 mph13.7 kmh 29.74 in1007.1 mb 0.00 in0.0 mm 0.00 in0.0 mm 0.00 in0.0 mm
05:25 AM 36.0°F2.2°C 14.5°F-9.7°C 41% 3.6 mph E5.8 kmh E 7.2 mph11.6 kmh 29.74 in1007.1 mb 0.00 in0.0 mm 0.00 in0.0 mm 0.00 in0.0 mm
05:20 AM 36.1°F2.3°C 14.7°F-9.6°C 41% 3.8 mph ESE6.1 kmh ESE 5.6 mph9.0 kmh 29.74 in1007.1 mb 0.00 in0.0 mm 0.00 in0.0 mm 0.00 in0.0 mm
05:15 AM 36.3°F2.4°C 14.3°F-9.8°C 40% 3.6 mph E5.8 kmh E 5.6 mph9.0 kmh 29.71 in1006.1 mb 0.00 in0.0 mm 0.00 in0.0 mm 0.00 in0.0 mm
05:10 AM 36.5°F2.5°C 14.4°F-9.8°C 40% 3.8 mph E6.1 kmh E 5.4 mph8.7 kmh 29.71 in1006.1 mb 0.00 in0.0 mm 0.00 in0.0 mm 0.00 in0.0 mm
05:05 AM 36.1°F2.3°C 13.5°F-10.3°C 39% 3.4 mph ESE5.5 kmh ESE 6.0 mph9.7 kmh 29.71 in1006.1 mb 0.00 in0.0 mm 0.00 in0.0 mm 0.00 in0.0 mm
05:00 AM 36.9°F2.7°C 14.2°F-9.9°C 39% 4.7 mph E7.6 kmh E 6.0 mph9.7 kmh 29.71 in1006.1 mb 0.00 in0.0 mm 0.00 in0.0 mm 0.00 in0.0 mm
04:55 AM 37.4°F3.0°C 14.1°F-9.9°C 38% 2.0 mph E3.2 kmh E 4.9 mph7.9 kmh 29.71 in1006.1 mb 0.00 in0.0 mm 0.00 in0.0 mm 0.00 in0.0 mm
04:50 AM 36.9°F2.7°C 14.2°F-9.9°C 39% 2.0 mph ESE3.2 kmh ESE 5.6 mph9.0 kmh 29.71 in1006.1 mb 0.00 in0.0 mm 0.00 in0.0 mm 0.00 in0.0 mm
04:45 AM 37.2°F2.9°C 13.9°F-10.1°C 38% 3.8 mph E6.1 kmh E 8.7 mph14.0 kmh 29.71 in1006.1 mb 0.00 in0.0 mm 0.00 in0.0 mm 0.00 in0.0 mm
04:40 AM 38.1°F3.4°C 14.7°F-9.6°C 38% 3.4 mph ENE5.5 kmh ENE 8.7 mph14.0 kmh 29.71 in1006.1 mb 0.00 in0.0 mm 0.00 in0.0 mm 0.00 in0.0 mm
04:35 AM 38.1°F3.4°C 14.7°F-9.6°C 38% 3.6 mph ENE5.8 kmh ENE 10.1 mph16.3 kmh 29.71 in1006.1 mb 0.00 in0.0 mm 0.00 in0.0 mm 0.00 in0.0 mm
04:30 AM 38.5°F3.6°C 15.0°F-9.4°C 38% 3.8 mph NE6.1 kmh NE 10.7 mph17.2 kmh 29.71 in1006.1 mb 0.00 in0.0 mm 0.00 in0.0 mm 0.00 in0.0 mm
04:25 AM 38.1°F3.4°C 14.7°F-9.6°C 38% 4.5 mph NE7.2 kmh NE 12.8 mph20.6 kmh 29.71 in1006.1 mb 0.00 in0.0 mm 0.00 in0.0 mm 0.00 in0.0 mm
04:20 AM 38.1°F3.4°C 14.7°F-9.6°C 38% 8.5 mph NE13.7 kmh NE 12.8 mph20.6 kmh 29.71 in1006.1 mb 0.00 in0.0 mm 0.00 in0.0 mm 0.00 in0.0 mm
04:15 AM 37.8°F3.2°C 15.0°F-9.4°C 39% 4.7 mph ENE7.6 kmh ENE 11.0 mph17.7 kmh 29.71 in1006.1 mb 0.00 in0.0 mm 0.00 in0.0 mm 0.00 in0.0 mm
04:10 AM 37.6°F3.1°C 14.8°F-9.6°C 39% 5.4 mph E8.7 kmh E 11.0 mph17.7 kmh 29.71 in1006.1 mb 0.00 in0.0 mm 0.00 in0.0 mm 0.00 in0.0 mm
04:05 AM 37.4°F3.0°C 14.7°F-9.6°C 39% 5.4 mph E8.7 kmh E 9.8 mph15.8 kmh 29.71 in1006.1 mb 0.00 in0.0 mm 0.00 in0.0 mm 0.00 in0.0 mm
04:00 AM 37.0°F2.8°C 15.5°F-9.2°C 41% 7.8 mph E12.6 kmh E 9.6 mph15.4 kmh 29.71 in1006.1 mb 0.00 in0.0 mm 0.00 in0.0 mm 0.00 in0.0 mm
03:55 AM 36.5°F2.5°C 15.6°F-9.1°C 42% 6.0 mph E9.7 kmh E 9.6 mph15.4 kmh 29.71 in1006.1 mb 0.00 in0.0 mm 0.00 in0.0 mm 0.00 in0.0 mm
03:50 AM 35.2°F1.8°C 13.9°F-10.1°C 41% 4.0 mph ESE6.4 kmh ESE 10.7 mph17.2 kmh 29.71 in1006.1 mb 0.00 in0.0 mm 0.00 in0.0 mm 0.00 in0.0 mm
03:45 AM 35.4°F1.9°C 14.0°F-10.0°C 41% 5.8 mph ESE9.3 kmh ESE 10.7 mph17.2 kmh 29.71 in1006.1 mb 0.00 in0.0 mm 0.00 in0.0 mm 0.00 in0.0 mm
03:40 AM 34.9°F1.6°C 13.0°F-10.6°C 40% 6.7 mph ESE10.8 kmh ESE 8.7 mph14.0 kmh 29.71 in1006.1 mb 0.00 in0.0 mm 0.00 in0.0 mm 0.00 in0.0 mm
03:35 AM 35.4°F1.9°C 13.5°F-10.3°C 40% 7.6 mph ESE12.2 kmh ESE 10.1 mph16.3 kmh 29.71 in1006.1 mb 0.00 in0.0 mm 0.00 in0.0 mm 0.00 in0.0 mm
03:30 AM 35.4°F1.9°C 14.0°F-10.0°C 41% 7.2 mph ESE11.6 kmh ESE 10.1 mph16.3 kmh 29.71 in1006.1 mb 0.00 in0.0 mm 0.00 in0.0 mm 0.00 in0.0 mm
03:25 AM 35.2°F1.8°C 13.3°F-10.4°C 40% 6.7 mph ESE10.8 kmh ESE 7.6 mph12.2 kmh 29.71 in1006.1 mb 0.00 in0.0 mm 0.00 in0.0 mm 0.00 in0.0 mm
03:20 AM 35.4°F1.9°C 12.9°F-10.6°C 39% 3.4 mph ESE5.5 kmh ESE 8.5 mph13.7 kmh 29.71 in1006.1 mb 0.00 in0.0 mm 0.00 in0.0 mm 0.00 in0.0 mm
03:15 AM 35.6°F2.0°C 13.0°F-10.6°C 39% 4.7 mph E7.6 kmh E 9.8 mph15.8 kmh 29.71 in1006.1 mb 0.00 in0.0 mm 0.00 in0.0 mm 0.00 in0.0 mm
03:10 AM 36.0°F2.2°C 13.4°F-10.3°C 39% 5.8 mph E9.3 kmh E 9.8 mph15.8 kmh 29.71 in1006.1 mb 0.00 in0.0 mm 0.00 in0.0 mm 0.00 in0.0 mm
03:05 AM 35.4°F1.9°C 12.9°F-10.6°C 39% 4.5 mph E7.2 kmh E 6.5 mph10.5 kmh 29.71 in1006.1 mb 0.00 in0.0 mm 0.00 in0.0 mm 0.00 in0.0 mm
03:00 AM 34.5°F1.4°C 12.6°F-10.8°C 40% 1.6 mph ESE2.6 kmh ESE 6.3 mph10.1 kmh 29.74 in1007.1 mb 0.00 in0.0 mm 0.00 in0.0 mm 0.00 in0.0 mm
02:55 AM 34.3°F1.3°C 12.5°F-10.8°C 40% 4.5 mph ESE7.2 kmh ESE 7.2 mph11.6 kmh 29.74 in1007.1 mb 0.00 in0.0 mm 0.00 in0.0 mm 0.00 in0.0 mm
02:50 AM 34.2°F1.2°C 12.9°F-10.6°C 41% 4.3 mph ESE6.9 kmh ESE 7.4 mph11.9 kmh 29.74 in1007.1 mb 0.00 in0.0 mm 0.00 in0.0 mm 0.00 in0.0 mm
02:45 AM 33.8°F1.0°C 13.1°F-10.5°C 42% 6.5 mph SE10.5 kmh SE 7.8 mph12.6 kmh 29.74 in1007.1 mb 0.00 in0.0 mm 0.00 in0.0 mm 0.00 in0.0 mm
02:40 AM 33.4°F0.8°C 12.2°F-11.0°C 41% 6.5 mph SE10.5 kmh SE 7.8 mph12.6 kmh 29.74 in1007.1 mb 0.00 in0.0 mm 0.00 in0.0 mm 0.00 in0.0 mm
02:35 AM 33.6°F0.9°C 12.9°F-10.6°C 42% 4.0 mph ESE6.4 kmh ESE 6.5 mph10.5 kmh 29.74 in1007.1 mb 0.00 in0.0 mm 0.00 in0.0 mm 0.00 in0.0 mm
02:30 AM 33.8°F1.0°C 12.0°F-11.1°C 40% 2.9 mph ESE4.7 kmh ESE 8.5 mph13.7 kmh 29.74 in1007.1 mb 0.00 in0.0 mm 0.00 in0.0 mm 0.00 in0.0 mm
02:25 AM 34.2°F1.2°C 12.3°F-10.9°C 40% 3.6 mph E5.8 kmh E 8.5 mph13.7 kmh 29.74 in1007.1 mb 0.00 in0.0 mm 0.00 in0.0 mm 0.00 in0.0 mm
02:20 AM 34.5°F1.4°C 12.1°F-11.1°C 39% 4.3 mph E6.9 kmh E 7.8 mph12.6 kmh 29.74 in1007.1 mb 0.00 in0.0 mm 0.00 in0.0 mm 0.00 in0.0 mm
02:15 AM 34.5°F1.4°C 12.6°F-10.8°C 40% 4.9 mph E7.9 kmh E 8.5 mph13.7 kmh 29.74 in1007.1 mb 0.00 in0.0 mm 0.00 in0.0 mm 0.00 in0.0 mm
02:10 AM 34.2°F1.2°C 12.3°F-10.9°C 40% 4.7 mph ESE7.6 kmh ESE 8.5 mph13.7 kmh 29.74 in1007.1 mb 0.00 in0.0 mm 0.00 in0.0 mm 0.00 in0.0 mm
02:05 AM 34.5°F1.4°C 11.5°F-11.4°C 38% 7.4 mph E11.9 kmh E 8.7 mph14.0 kmh 29.74 in1007.1 mb 0.00 in0.0 mm 0.00 in0.0 mm 0.00 in0.0 mm
02:00 AM 35.4°F1.9°C 11.1°F-11.6°C 36% 4.3 mph ESE6.9 kmh ESE 8.7 mph14.0 kmh 29.74 in1007.1 mb 0.00 in0.0 mm 0.00 in0.0 mm 0.00 in0.0 mm
01:55 AM 35.6°F2.0°C 11.2°F-11.6°C 36% 4.3 mph ESE6.9 kmh ESE 9.6 mph15.4 kmh 29.74 in1007.1 mb 0.00 in0.0 mm 0.00 in0.0 mm 0.00 in0.0 mm
01:50 AM 36.1°F2.3°C 11.1°F-11.6°C 35% 6.7 mph E10.8 kmh E 9.6 mph15.4 kmh 29.74 in1007.1 mb 0.00 in0.0 mm 0.00 in0.0 mm 0.00 in0.0 mm
01:45 AM 36.3°F2.4°C 11.2°F-11.6°C 35% 6.7 mph E10.8 kmh E 8.1 mph13.0 kmh 29.74 in1007.1 mb 0.00 in0.0 mm 0.00 in0.0 mm 0.00 in0.0 mm
01:40 AM 36.9°F2.7°C 11.7°F-11.3°C 35% 5.6 mph ESE9.0 kmh ESE 9.8 mph15.8 kmh 29.74 in1007.1 mb 0.00 in0.0 mm 0.00 in0.0 mm 0.00 in0.0 mm
01:35 AM 37.0°F2.8°C 11.2°F-11.6°C 34% 5.6 mph ESE9.0 kmh ESE 9.8 mph15.8 kmh 29.74 in1007.1 mb 0.00 in0.0 mm 0.00 in0.0 mm 0.00 in0.0 mm
01:30 AM 38.1°F3.4°C 12.2°F-11.0°C 34% 4.3 mph E6.9 kmh E 9.6 mph15.4 kmh 29.74 in1007.1 mb 0.00 in0.0 mm 0.00 in0.0 mm 0.00 in0.0 mm
01:25 AM 38.5°F3.6°C 10.4°F-12.0°C 31% 4.7 mph E7.6 kmh E 9.6 mph15.4 kmh 29.74 in1007.1 mb 0.00 in0.0 mm 0.00 in0.0 mm 0.00 in0.0 mm
01:20 AM 39.2°F4.0°C 11.0°F-11.7°C 31% 7.4 mph ENE11.9 kmh ENE 12.1 mph19.5 kmh 29.74 in1007.1 mb 0.00 in0.0 mm 0.00 in0.0 mm 0.00 in0.0 mm
01:15 AM 39.4°F4.1°C 11.2°F-11.6°C 31% 7.4 mph NE11.9 kmh NE 13.2 mph21.2 kmh 29.74 in1007.1 mb 0.00 in0.0 mm 0.00 in0.0 mm 0.00 in0.0 mm
01:10 AM 39.7°F4.3°C 11.5°F-11.4°C 31% 6.5 mph ENE10.5 kmh ENE 13.2 mph21.2 kmh 29.74 in1007.1 mb 0.00 in0.0 mm 0.00 in0.0 mm 0.00 in0.0 mm
01:05 AM 39.7°F4.3°C 11.5°F-11.4°C 31% 4.3 mph ENE6.9 kmh ENE 10.5 mph16.9 kmh 29.74 in1007.1 mb 0.00 in0.0 mm 0.00 in0.0 mm 0.00 in0.0 mm
01:00 AM 39.9°F4.4°C 11.7°F-11.3°C 31% 6.5 mph NE10.5 kmh NE 12.5 mph20.1 kmh 29.77 in1008.1 mb 0.00 in0.0 mm 0.00 in0.0 mm 0.00 in0.0 mm
12:55 AM 40.1°F4.5°C 11.8°F-11.2°C 31% 5.8 mph NE9.3 kmh NE 12.5 mph20.1 kmh 29.77 in1008.1 mb 0.00 in0.0 mm 0.00 in0.0 mm 0.00 in0.0 mm
12:50 AM 40.1°F4.5°C 11.8°F-11.2°C 31% 5.8 mph NE9.3 kmh NE 12.5 mph20.1 kmh 29.77 in1008.1 mb 0.00 in0.0 mm 0.00 in0.0 mm 0.00 in0.0 mm
12:45 AM 39.9°F4.4°C 11.7°F-11.3°C 31% 9.8 mph NE15.8 kmh NE 12.5 mph20.1 kmh 29.77 in1008.1 mb 0.00 in0.0 mm 0.00 in0.0 mm 0.00 in0.0 mm
12:40 AM 39.4°F4.1°C 11.2°F-11.6°C 31% 5.8 mph ENE9.3 kmh ENE 12.3 mph19.8 kmh 29.77 in1008.1 mb 0.00 in0.0 mm 0.00 in0.0 mm 0.00 in0.0 mm
12:35 AM 38.8°F3.8°C 10.7°F-11.8°C 31% 6.5 mph E10.5 kmh E 15.2 mph24.5 kmh 29.77 in1008.1 mb 0.00 in0.0 mm 0.00 in0.0 mm 0.00 in0.0 mm
12:30 AM 38.8°F3.8°C 10.7°F-11.8°C 31% 6.3 mph E10.1 kmh E 15.2 mph24.5 kmh 29.77 in1008.1 mb 0.00 in0.0 mm 0.00 in0.0 mm 0.00 in0.0 mm
12:25 AM 38.1°F3.4°C 10.1°F-12.2°C 31% 3.8 mph ESE6.1 kmh ESE 10.3 mph16.6 kmh 29.77 in1008.1 mb 0.00 in0.0 mm 0.00 in0.0 mm 0.00 in0.0 mm
12:20 AM 39.0°F3.9°C 9.4°F-12.6°C 29% 9.4 mph E15.1 kmh E 10.7 mph17.2 kmh 29.77 in1008.1 mb 0.00 in0.0 mm 0.00 in0.0 mm 0.00 in0.0 mm
12:15 AM 39.4°F4.1°C 8.9°F-12.8°C 28% 6.7 mph E10.8 kmh E 12.1 mph19.5 kmh 29.77 in1008.1 mb 0.00 in0.0 mm 0.00 in0.0 mm 0.00 in0.0 mm
12:10 AM 39.7°F4.3°C 9.2°F-12.7°C 28% 5.6 mph E9.0 kmh E 12.1 mph19.5 kmh 29.77 in1008.1 mb 0.00 in0.0 mm 0.00 in0.0 mm 0.00 in0.0 mm
12:05 AM 40.3°F4.6°C 9.7°F-12.4°C 28% 6.0 mph ENE9.7 kmh ENE 12.8 mph20.6 kmh 29.77 in1008.1 mb 0.00 in0.0 mm 0.00 in0.0 mm 0.00 in0.0 mm
12:00 AM 40.3°F4.6°C 9.7°F-12.4°C 28% 6.3 mph ENE10.1 kmh ENE 12.8 mph20.6 kmh 29.77 in1008.1 mb 0.00 in0.0 mm 0.00 in0.0 mm 0.00 in0.0 mm